createdAt,value
2019-03-27T00:00:41.803Z,0.00
2019-03-27T00:01:41.786Z,0.00
2019-03-27T00:02:41.763Z,0.00
2019-03-27T00:03:41.751Z,0.00
2019-03-27T00:04:41.962Z,0.00
2019-03-27T00:05:41.733Z,0.00
2019-03-27T00:06:41.774Z,0.00
2019-03-27T00:07:41.720Z,0.00
2019-03-27T00:08:41.724Z,0.00
2019-03-27T00:09:41.692Z,0.00
2019-03-27T00:10:41.750Z,0.00
2019-03-27T00:11:41.671Z,0.00
2019-03-27T00:12:41.649Z,0.00
2019-03-27T00:13:41.665Z,0.00
2019-03-27T00:14:41.626Z,0.00
2019-03-27T00:15:41.634Z,0.00
2019-03-27T00:16:41.657Z,0.00
2019-03-27T00:17:41.593Z,0.00
2019-03-27T00:18:41.604Z,0.00
2019-03-27T00:19:41.575Z,0.00
2019-03-27T00:20:41.570Z,0.00
2019-03-27T00:21:41.547Z,0.00
2019-03-27T00:22:41.595Z,0.00
2019-03-27T00:23:41.539Z,0.00
2019-03-27T00:24:41.523Z,0.00
2019-03-27T00:25:41.508Z,0.00
2019-03-27T00:26:41.509Z,0.00
2019-03-27T00:27:41.517Z,0.00
2019-03-27T00:28:41.508Z,0.00
2019-03-27T00:29:41.464Z,0.00
2019-03-27T00:30:41.454Z,0.00
2019-03-27T00:31:41.450Z,0.00
2019-03-27T00:32:41.434Z,0.00
2019-03-27T00:33:41.425Z,0.00
2019-03-27T00:34:41.440Z,0.00
2019-03-27T00:35:41.392Z,0.00
2019-03-27T00:36:41.386Z,0.00
2019-03-27T00:37:41.384Z,0.00
2019-03-27T00:38:41.375Z,0.00
2019-03-27T00:39:41.362Z,0.00
2019-03-27T00:40:41.381Z,0.00
2019-03-27T00:41:41.333Z,0.00
2019-03-27T00:42:41.317Z,0.00
2019-03-27T00:43:41.314Z,0.00
2019-03-27T00:44:41.366Z,0.00
2019-03-27T00:45:41.293Z,0.00
2019-03-27T00:46:41.337Z,0.00
2019-03-27T00:47:41.274Z,0.00
2019-03-27T00:48:41.276Z,0.00
2019-03-27T00:49:41.242Z,0.00
2019-03-27T00:50:41.240Z,0.00
2019-03-27T00:51:41.224Z,0.00
2019-03-27T00:52:41.268Z,0.00
2019-03-27T00:53:41.221Z,0.00
2019-03-27T00:54:41.194Z,0.00
2019-03-27T00:55:41.183Z,0.00
2019-03-27T00:56:41.171Z,0.00
2019-03-27T00:57:41.159Z,0.00
2019-03-27T00:58:41.205Z,0.00
2019-03-27T00:59:41.141Z,0.00
2019-03-27T01:00:41.133Z,0.00
2019-03-27T01:01:41.129Z,0.00
2019-03-27T01:02:41.111Z,0.00
2019-03-27T01:03:41.133Z,0.00
2019-03-27T01:04:41.116Z,0.00
2019-03-27T01:05:41.070Z,0.00
2019-03-27T01:06:41.084Z,0.00
2019-03-27T01:07:41.052Z,0.00
2019-03-27T01:08:41.041Z,0.00
2019-03-27T01:09:41.026Z,0.00
2019-03-27T01:10:41.062Z,0.00
2019-03-27T01:11:41.002Z,0.00
2019-03-27T01:12:41.001Z,0.00
2019-03-27T01:13:40.983Z,0.00
2019-03-27T01:14:40.975Z,0.00
2019-03-27T01:15:40.968Z,0.00
2019-03-27T01:16:40.993Z,0.00
2019-03-27T01:17:40.944Z,0.00
2019-03-27T01:18:40.956Z,0.00
2019-03-27T01:19:40.913Z,0.00
2019-03-27T01:20:40.904Z,0.00
2019-03-27T01:21:40.895Z,0.00
2019-03-27T01:22:40.934Z,0.00
2019-03-27T01:23:40.879Z,0.00
2019-03-27T01:24:40.869Z,0.00
2019-03-27T01:25:40.856Z,0.00
2019-03-27T01:26:40.916Z,0.00
2019-03-27T01:27:40.850Z,0.00
2019-03-27T01:28:40.877Z,0.00
2019-03-27T01:29:40.804Z,0.00
2019-03-27T01:30:40.879Z,0.00
2019-03-27T01:31:40.811Z,0.00
2019-03-27T01:32:40.792Z,0.00
2019-03-27T01:33:40.767Z,0.00
2019-03-27T01:34:40.818Z,0.00
2019-03-27T01:35:40.749Z,0.00
2019-03-27T01:36:40.736Z,0.00
2019-03-27T01:37:40.798Z,0.00
2019-03-27T01:38:40.709Z,0.00
2019-03-27T01:39:40.717Z,0.00
2019-03-27T01:40:40.725Z,0.00
2019-03-27T01:41:40.680Z,0.00
2019-03-27T01:42:40.668Z,0.00
2019-03-27T01:43:40.648Z,0.00
2019-03-27T01:44:40.646Z,0.00
2019-03-27T01:45:52.391Z,0.00
2019-03-27T01:46:41.679Z,0.00
2019-03-27T01:47:40.610Z,0.00
2019-03-27T01:48:40.609Z,0.00
2019-03-27T01:49:40.628Z,0.00
2019-03-27T01:50:40.578Z,0.00
2019-03-27T01:51:40.568Z,0.00
2019-03-27T01:52:41.004Z,0.00
2019-03-27T01:53:40.560Z,0.00
2019-03-27T01:54:40.545Z,0.00
2019-03-27T01:55:40.541Z,0.00
2019-03-27T01:56:40.512Z,0.00
2019-03-27T01:57:40.499Z,0.00
2019-03-27T01:58:40.556Z,0.00
2019-03-27T01:59:40.493Z,0.00
2019-03-27T02:00:40.468Z,0.00
2019-03-27T02:01:40.457Z,0.00
2019-03-27T02:02:40.461Z,0.00
2019-03-27T02:03:40.453Z,0.00
2019-03-27T02:04:40.516Z,0.00
2019-03-27T02:05:40.446Z,0.00
2019-03-27T02:06:40.411Z,0.00
2019-03-27T02:07:40.412Z,0.00
2019-03-27T02:08:40.392Z,0.00
2019-03-27T02:09:40.400Z,0.00
2019-03-27T02:10:40.397Z,0.00
2019-03-27T02:11:40.355Z,0.00
2019-03-27T02:12:40.353Z,0.00
2019-03-27T02:13:40.330Z,0.00
2019-03-27T02:14:40.328Z,0.00
2019-03-27T02:15:40.318Z,0.00
2019-03-27T02:16:40.357Z,0.00
2019-03-27T02:17:40.289Z,0.00
2019-03-27T02:18:40.290Z,0.00
2019-03-27T02:19:40.267Z,0.00
2019-03-27T02:20:40.263Z,0.00
2019-03-27T02:21:40.238Z,0.00
2019-03-27T02:22:40.276Z,0.00
2019-03-27T02:23:40.248Z,0.00
2019-03-27T02:24:40.220Z,0.00
2019-03-27T02:25:40.194Z,0.00
2019-03-27T02:26:40.191Z,0.00
2019-03-27T02:27:40.175Z,0.00
2019-03-27T02:28:40.220Z,0.00
2019-03-27T02:29:40.154Z,0.00
2019-03-27T02:30:40.154Z,0.00
2019-03-27T02:31:40.213Z,0.00
2019-03-27T02:32:40.131Z,0.00
2019-03-27T02:33:40.142Z,0.00
2019-03-27T02:34:40.142Z,0.00
2019-03-27T02:35:40.095Z,0.00
2019-03-27T02:36:40.082Z,0.00
2019-03-27T02:37:40.089Z,0.00
2019-03-27T02:38:40.069Z,0.00
2019-03-27T02:39:40.062Z,0.00
2019-03-27T02:40:40.096Z,0.00
2019-03-27T02:41:40.046Z,0.00
2019-03-27T02:42:40.025Z,0.00
2019-03-27T02:43:40.003Z,0.00
2019-03-27T02:44:39.997Z,0.00
2019-03-27T02:45:39.990Z,0.00
2019-03-27T02:46:40.043Z,0.00
2019-03-27T02:47:39.967Z,0.00
2019-03-27T02:48:39.948Z,0.00
2019-03-27T02:49:39.948Z,0.00
2019-03-27T02:50:39.938Z,0.00
2019-03-27T02:51:39.918Z,0.00
2019-03-27T02:52:39.967Z,0.00
2019-03-27T02:53:39.914Z,0.00
2019-03-27T02:54:39.886Z,0.00
2019-03-27T02:55:39.876Z,0.00
2019-03-27T02:56:39.862Z,0.00
2019-03-27T02:57:39.844Z,0.00
2019-03-27T02:58:39.902Z,0.00
2019-03-27T02:59:39.840Z,0.00
2019-03-27T03:00:39.824Z,0.00
2019-03-27T03:01:39.812Z,0.00
2019-03-27T03:02:39.804Z,0.00
2019-03-27T03:03:39.804Z,0.00
2019-03-27T03:04:39.822Z,0.00
2019-03-27T03:05:39.759Z,0.00
2019-03-27T03:06:39.759Z,0.00
2019-03-27T03:07:39.765Z,0.00
2019-03-27T03:08:39.736Z,0.00
2019-03-27T03:09:39.717Z,0.00
2019-03-27T03:10:39.750Z,0.00
2019-03-27T03:11:39.781Z,0.00
2019-03-27T03:12:39.706Z,0.00
2019-03-27T03:13:39.758Z,0.00
2019-03-27T03:14:39.679Z,0.00
2019-03-27T03:15:39.649Z,0.00
2019-03-27T03:16:42.773Z,0.00
2019-03-27T03:17:39.628Z,0.00
2019-03-27T03:18:39.626Z,0.00
2019-03-27T03:19:39.641Z,0.00
2019-03-27T03:20:39.603Z,0.00
2019-03-27T03:21:39.584Z,0.00
2019-03-27T03:22:39.638Z,0.00
2019-03-27T03:23:39.564Z,0.00
2019-03-27T03:24:39.557Z,0.00
2019-03-27T03:25:39.581Z,0.00
2019-03-27T03:26:39.560Z,0.00
2019-03-27T03:27:39.535Z,0.00
2019-03-27T03:28:39.546Z,0.00
2019-03-27T03:29:39.512Z,0.00
2019-03-27T03:30:39.540Z,0.00
2019-03-27T03:31:39.492Z,0.00
2019-03-27T03:32:39.497Z,0.00
2019-03-27T03:33:39.479Z,0.00
2019-03-27T03:34:39.496Z,0.00
2019-03-27T03:35:39.437Z,0.00
2019-03-27T03:36:39.445Z,0.00
2019-03-27T03:37:39.407Z,0.00
2019-03-27T03:38:39.416Z,0.00
2019-03-27T03:39:39.396Z,0.00
2019-03-27T03:40:39.443Z,0.00
2019-03-27T03:41:39.370Z,0.00
2019-03-27T03:42:39.375Z,0.00
2019-03-27T03:43:39.365Z,0.00
2019-03-27T03:44:39.362Z,0.00
2019-03-27T03:45:39.338Z,0.00
2019-03-27T03:46:39.357Z,0.00
2019-03-27T03:47:39.310Z,0.00
2019-03-27T03:48:39.338Z,0.00
2019-03-27T03:49:39.311Z,0.00
2019-03-27T03:50:39.280Z,0.00
2019-03-27T03:51:39.271Z,0.00
2019-03-27T03:52:39.300Z,0.00
2019-03-27T03:53:39.246Z,0.00
2019-03-27T03:54:39.244Z,0.00
2019-03-27T03:55:39.219Z,0.00
2019-03-27T03:56:39.207Z,0.00
2019-03-27T03:57:39.217Z,0.00
2019-03-27T03:58:39.247Z,0.00
2019-03-27T03:59:39.182Z,0.00
2019-03-27T04:00:39.175Z,0.00
2019-03-27T04:01:39.155Z,0.00
2019-03-27T04:02:39.152Z,0.00
2019-03-27T04:03:39.165Z,0.00
2019-03-27T04:04:39.184Z,0.00
2019-03-27T04:05:39.130Z,0.00
2019-03-27T04:06:39.101Z,0.00
2019-03-27T04:07:39.085Z,0.00
2019-03-27T04:08:39.093Z,0.00
2019-03-27T04:09:39.065Z,0.00
2019-03-27T04:10:39.107Z,0.00
2019-03-27T04:11:39.051Z,0.00
2019-03-27T04:12:39.034Z,0.00
2019-03-27T04:13:39.019Z,0.00
2019-03-27T04:14:39.011Z,0.00
2019-03-27T04:15:39.002Z,0.00
2019-03-27T04:16:39.053Z,0.00
2019-03-27T04:17:38.993Z,0.00
2019-03-27T04:18:38.969Z,0.00
2019-03-27T04:19:38.957Z,0.00
2019-03-27T04:20:38.952Z,0.00
2019-03-27T04:21:38.937Z,0.00
2019-03-27T04:22:38.954Z,0.00
2019-03-27T04:23:38.919Z,0.00
2019-03-27T04:24:38.917Z,0.00
2019-03-27T04:26:07.269Z,0.00
2019-03-27T04:26:39.898Z,0.00
2019-03-27T04:27:38.870Z,0.00
2019-03-27T04:28:38.914Z,0.00
2019-03-27T04:29:38.844Z,0.00
2019-03-27T04:30:38.834Z,0.00
2019-03-27T04:31:38.837Z,0.00
2019-03-27T04:32:38.839Z,0.00
2019-03-27T04:33:38.822Z,0.00
2019-03-27T04:34:38.835Z,0.00
2019-03-27T04:35:38.793Z,0.00
2019-03-27T04:36:38.821Z,0.00
2019-03-27T04:37:38.769Z,0.00
2019-03-27T04:38:38.746Z,0.00
2019-03-27T04:39:38.742Z,0.00
2019-03-27T04:40:38.791Z,0.00
2019-03-27T04:41:38.723Z,0.00
2019-03-27T04:42:38.703Z,0.00
2019-03-27T04:43:38.717Z,0.00
2019-03-27T04:44:38.693Z,0.00
2019-03-27T04:45:38.670Z,0.00
2019-03-27T04:46:38.713Z,0.00
2019-03-27T04:47:38.655Z,0.00
2019-03-27T04:48:38.640Z,0.00
2019-03-27T04:49:38.648Z,4.00
2019-03-27T04:50:38.619Z,4.00
2019-03-27T04:51:38.608Z,0.00
2019-03-27T04:52:38.655Z,4.00
2019-03-27T04:53:38.590Z,4.00
2019-03-27T04:54:38.577Z,4.00
2019-03-27T04:55:38.578Z,4.00
2019-03-27T04:56:38.566Z,4.00
2019-03-27T04:57:38.555Z,4.00
2019-03-27T04:58:38.625Z,12.00
2019-03-27T04:59:38.521Z,8.00
2019-03-27T05:00:38.514Z,12.00
2019-03-27T05:01:38.510Z,16.00
2019-03-27T05:02:38.490Z,20.00
2019-03-27T05:03:38.479Z,24.00
2019-03-27T05:04:38.507Z,24.00
2019-03-27T05:05:38.456Z,28.00
2019-03-27T05:06:38.445Z,32.00
2019-03-27T05:07:38.430Z,40.00
2019-03-27T05:08:38.419Z,48.00
2019-03-27T05:09:38.418Z,60.00
2019-03-27T05:10:38.491Z,68.00
2019-03-27T05:11:38.464Z,80.00
2019-03-27T05:12:38.872Z,92.00
2019-03-27T05:13:38.388Z,104.00
2019-03-27T05:14:38.386Z,112.00
2019-03-27T05:15:38.359Z,132.00
2019-03-27T05:16:38.408Z,144.00
2019-03-27T05:17:45.673Z,160.00
2019-03-27T05:18:39.314Z,180.00
2019-03-27T05:19:38.300Z,192.00
2019-03-27T05:20:38.340Z,212.00
2019-03-27T05:21:38.301Z,236.00
2019-03-27T05:22:38.330Z,252.00
2019-03-27T05:23:38.270Z,276.00
2019-03-27T05:24:38.281Z,304.00
2019-03-27T05:25:38.252Z,324.00
2019-03-27T05:26:38.241Z,348.00
2019-03-27T05:27:38.240Z,372.00
2019-03-27T05:28:38.252Z,400.00
2019-03-27T05:29:38.204Z,432.00
2019-03-27T05:30:38.189Z,472.00
2019-03-27T05:31:38.197Z,504.00
2019-03-27T05:32:38.186Z,536.00
2019-03-27T05:33:38.150Z,576.00
2019-03-27T05:34:38.177Z,620.00
2019-03-27T05:35:38.141Z,664.00
2019-03-27T05:36:38.138Z,708.00
2019-03-27T05:37:38.121Z,740.00
2019-03-27T05:38:38.108Z,788.00
2019-03-27T05:39:38.149Z,848.00
2019-03-27T05:40:38.131Z,900.00
2019-03-27T05:41:38.070Z,952.00
2019-03-27T05:42:38.050Z,988.00
2019-03-27T05:43:38.071Z,1028.00
2019-03-27T05:44:38.029Z,1068.00
2019-03-27T05:45:38.058Z,1116.00
2019-03-27T05:46:38.072Z,1176.00
2019-03-27T05:47:38.008Z,1232.00
2019-03-27T05:48:37.994Z,1288.00
2019-03-27T05:49:37.994Z,1356.00
2019-03-27T05:50:38.018Z,1412.00
2019-03-27T05:51:37.962Z,1484.00
2019-03-27T05:52:38.440Z,1576.00
2019-03-27T05:53:37.944Z,1680.00
2019-03-27T05:54:37.922Z,1776.00
2019-03-27T05:55:37.908Z,1836.00
2019-03-27T05:56:37.903Z,1872.00
2019-03-27T05:57:37.953Z,1896.00
2019-03-27T05:58:37.913Z,1916.00
2019-03-27T05:59:37.894Z,1936.00
2019-03-27T06:00:37.858Z,1964.00
2019-03-27T06:01:37.866Z,2012.00
2019-03-27T06:02:37.855Z,2060.00
2019-03-27T06:03:37.838Z,2104.00
2019-03-27T06:04:37.851Z,2156.00
2019-03-27T06:05:37.807Z,2208.00
2019-03-27T06:06:37.802Z,2264.00
2019-03-27T06:07:37.818Z,2332.00
2019-03-27T06:08:37.780Z,2452.00
2019-03-27T06:09:37.812Z,2588.00
2019-03-27T06:10:37.799Z,2704.00
2019-03-27T06:11:37.734Z,2780.00
2019-03-27T06:12:37.744Z,2868.00
2019-03-27T06:13:37.709Z,2976.00
2019-03-27T06:14:37.711Z,3120.00
2019-03-27T06:15:37.694Z,3244.00
2019-03-27T06:16:37.725Z,3324.00
2019-03-27T06:17:37.668Z,3396.00
2019-03-27T06:18:37.670Z,3476.00
2019-03-27T06:19:37.669Z,3540.00
2019-03-27T06:20:37.637Z,3592.00
2019-03-27T06:21:37.636Z,3644.00
2019-03-27T06:22:37.678Z,3712.00
2019-03-27T06:23:37.607Z,3784.00
2019-03-27T06:24:37.693Z,3848.00
2019-03-27T06:25:37.628Z,3904.00
2019-03-27T06:26:37.581Z,3964.00
2019-03-27T06:27:37.565Z,4020.00
2019-03-27T06:28:37.615Z,4076.00
2019-03-27T06:29:37.544Z,4148.00
2019-03-27T06:30:37.531Z,4208.00
2019-03-27T06:31:37.555Z,4280.00
2019-03-27T06:32:37.522Z,4360.00
2019-03-27T06:33:37.493Z,4428.00
2019-03-27T06:34:37.512Z,4480.00
2019-03-27T06:35:37.504Z,4524.00
2019-03-27T06:36:37.468Z,4564.00
2019-03-27T06:37:37.447Z,4620.00
2019-03-27T06:38:37.482Z,4704.00
2019-03-27T06:39:37.428Z,4796.00
2019-03-27T06:40:39.740Z,4872.00
2019-03-27T06:41:37.415Z,4932.00
2019-03-27T06:42:37.408Z,4992.00
2019-03-27T06:43:37.392Z,5080.00
2019-03-27T06:44:37.390Z,5180.00
2019-03-27T06:45:37.364Z,5256.00
2019-03-27T06:46:37.379Z,5292.00
2019-03-27T06:47:37.336Z,5360.00
2019-03-27T06:48:37.328Z,5448.00
2019-03-27T06:49:37.349Z,5532.00
2019-03-27T06:50:37.318Z,5628.00
2019-03-27T06:51:40.288Z,5736.00
2019-03-27T06:52:37.344Z,5800.00
2019-03-27T06:53:37.290Z,5840.00
2019-03-27T06:54:37.267Z,5940.00
2019-03-27T06:55:37.292Z,6100.00
2019-03-27T06:56:37.241Z,6256.00
2019-03-27T06:57:37.225Z,6316.00
2019-03-27T06:58:37.267Z,6384.00
2019-03-27T06:59:37.205Z,6428.00
2019-03-27T07:00:37.206Z,6492.00
2019-03-27T07:01:37.175Z,6636.00
2019-03-27T07:02:37.169Z,6808.00
2019-03-27T07:03:37.158Z,6996.00
2019-03-27T07:04:37.210Z,7192.00
2019-03-27T07:05:37.137Z,7372.00
2019-03-27T07:06:37.127Z,7512.00
2019-03-27T07:07:37.121Z,7568.00
2019-03-27T07:08:37.100Z,7620.00
2019-03-27T07:09:37.091Z,7684.00
2019-03-27T07:10:37.136Z,7768.00
2019-03-27T07:11:37.190Z,7840.00
2019-03-27T07:12:37.460Z,7900.00
2019-03-27T07:13:37.081Z,7940.00
2019-03-27T07:14:37.045Z,7980.00
2019-03-27T07:15:37.080Z,8036.00
2019-03-27T07:16:37.223Z,8148.00
2019-03-27T07:17:37.040Z,8356.00
2019-03-27T07:18:40.432Z,8708.00
2019-03-27T07:19:37.086Z,9188.00
2019-03-27T07:20:36.966Z,9764.00
2019-03-27T07:21:37.235Z,10372.00
2019-03-27T07:22:37.058Z,10944.00
2019-03-27T07:23:37.027Z,11444.00
2019-03-27T07:24:37.012Z,11820.00
2019-03-27T07:25:37.071Z,12060.00
2019-03-27T07:26:37.014Z,12376.00
2019-03-27T07:27:36.996Z,12708.00
2019-03-27T07:28:37.028Z,12876.00
2019-03-27T07:29:36.993Z,12564.00
2019-03-27T07:30:36.955Z,11940.00
2019-03-27T07:31:36.950Z,11332.00
2019-03-27T07:32:36.973Z,11032.00
2019-03-27T07:33:36.912Z,11032.00
2019-03-27T07:34:36.953Z,11184.00
2019-03-27T07:35:36.815Z,11404.00
2019-03-27T07:36:36.796Z,11568.00
2019-03-27T07:37:36.790Z,11600.00
2019-03-27T07:38:36.774Z,11520.00
2019-03-27T07:39:36.754Z,11484.00
2019-03-27T07:40:36.787Z,11616.00
2019-03-27T07:41:36.732Z,11784.00
2019-03-27T07:42:36.729Z,11720.00
2019-03-27T07:43:36.722Z,11464.00
2019-03-27T07:44:36.711Z,11256.00
2019-03-27T07:45:36.713Z,11328.00
2019-03-27T07:46:36.742Z,11472.00
2019-03-27T07:47:36.690Z,11576.00
2019-03-27T07:48:36.662Z,11744.00
2019-03-27T07:49:36.677Z,11892.00
2019-03-27T07:50:36.650Z,11988.00
2019-03-27T07:51:36.633Z,12044.00
2019-03-27T07:52:36.646Z,12052.00
2019-03-27T07:53:36.613Z,12044.00
2019-03-27T07:54:36.644Z,12124.00
2019-03-27T07:55:36.579Z,12308.00
2019-03-27T07:56:36.634Z,12556.00
2019-03-27T07:57:36.562Z,12732.00
2019-03-27T07:58:36.620Z,12720.00
2019-03-27T07:59:36.547Z,12540.00
2019-03-27T08:00:36.534Z,12440.00
2019-03-27T08:01:36.522Z,12400.00
2019-03-27T08:02:36.499Z,12292.00
2019-03-27T08:03:36.533Z,12280.00
2019-03-27T08:04:36.682Z,12332.00
2019-03-27T08:05:36.477Z,12284.00
2019-03-27T08:06:36.465Z,11948.00
2019-03-27T08:07:36.463Z,11464.00
2019-03-27T08:08:36.452Z,11068.00
2019-03-27T08:09:36.428Z,10700.00
2019-03-27T08:10:36.616Z,10472.00
2019-03-27T08:11:36.440Z,10448.00
2019-03-27T08:12:36.390Z,10232.00
2019-03-27T08:13:36.378Z,10028.00
2019-03-27T08:14:36.368Z,9828.00
2019-03-27T08:15:36.393Z,9380.00
2019-03-27T08:16:36.371Z,9248.00
2019-03-27T08:17:36.373Z,8684.00
2019-03-27T08:18:36.349Z,8512.00
2019-03-27T08:19:36.314Z,8424.00
2019-03-27T08:20:36.314Z,8404.00
2019-03-27T08:21:36.289Z,8744.00
2019-03-27T08:22:36.522Z,8508.00
2019-03-27T08:23:36.284Z,9048.00
2019-03-27T08:24:36.301Z,8432.00
2019-03-27T08:25:36.254Z,8928.00
2019-03-27T08:26:36.242Z,8000.00
2019-03-27T08:27:36.222Z,8224.00
2019-03-27T08:28:36.350Z,8120.00
2019-03-27T08:29:36.202Z,8352.00
2019-03-27T08:30:36.204Z,8416.00
2019-03-27T08:31:36.201Z,8888.00
2019-03-27T08:32:37.502Z,9584.00
2019-03-27T08:33:36.159Z,9624.00
2019-03-27T08:34:36.190Z,9640.00
2019-03-27T08:35:36.156Z,9668.00
2019-03-27T08:36:36.129Z,9752.00
2019-03-27T08:37:36.121Z,9880.00
2019-03-27T08:38:36.115Z,9972.00
2019-03-27T08:39:36.089Z,9636.00
2019-03-27T08:40:36.129Z,10164.00
2019-03-27T08:41:36.067Z,10092.00
2019-03-27T08:42:36.055Z,10128.00
2019-03-27T08:43:36.046Z,9952.00
2019-03-27T08:44:36.049Z,10520.00
2019-03-27T08:45:36.052Z,10576.00
2019-03-27T08:46:36.134Z,10676.00
2019-03-27T08:47:36.010Z,10896.00
2019-03-27T08:48:39.080Z,11256.00
2019-03-27T08:49:35.989Z,11400.00
2019-03-27T08:50:35.969Z,10980.00
2019-03-27T08:51:35.961Z,10736.00
2019-03-27T08:52:36.013Z,10732.00
2019-03-27T08:53:35.947Z,10224.00
2019-03-27T08:54:35.960Z,9740.00
2019-03-27T08:55:35.920Z,10160.00
2019-03-27T08:56:35.953Z,13012.00
2019-03-27T08:57:35.911Z,13176.00
2019-03-27T08:58:35.931Z,13260.00
2019-03-27T08:59:35.872Z,13792.00
2019-03-27T09:00:35.886Z,14572.00
2019-03-27T09:01:35.846Z,15488.00
2019-03-27T09:02:35.839Z,17920.00
2019-03-27T09:03:35.898Z,18080.00
2019-03-27T09:04:35.872Z,18368.00
2019-03-27T09:05:35.814Z,17004.00
2019-03-27T09:06:35.806Z,17280.00
2019-03-27T09:07:35.781Z,17824.00
2019-03-27T09:08:35.771Z,18048.00
2019-03-27T09:09:35.798Z,18336.00
2019-03-27T09:10:35.815Z,18720.00
2019-03-27T09:11:35.750Z,18400.00
2019-03-27T09:12:35.726Z,17376.00
2019-03-27T09:13:35.714Z,16504.00
2019-03-27T09:14:35.713Z,15720.00
2019-03-27T09:15:35.699Z,14760.00
2019-03-27T09:16:35.733Z,14080.00
2019-03-27T09:17:35.671Z,13792.00
2019-03-27T09:18:35.691Z,14552.00
2019-03-27T09:19:36.428Z,15192.00
2019-03-27T09:20:35.639Z,15196.00
2019-03-27T09:21:35.638Z,13940.00
2019-03-27T09:22:35.689Z,14420.00
2019-03-27T09:23:35.602Z,15216.00
2019-03-27T09:24:35.593Z,16168.00
2019-03-27T09:25:35.581Z,18816.00
2019-03-27T09:26:35.577Z,19936.00
2019-03-27T09:27:35.564Z,21088.00
2019-03-27T09:28:35.612Z,22144.00
2019-03-27T09:29:35.547Z,23008.00
2019-03-27T09:30:35.551Z,23680.00
2019-03-27T09:31:44.538Z,24000.00
2019-03-27T09:32:36.508Z,24480.00
2019-03-27T09:33:35.577Z,24288.00
2019-03-27T09:34:35.545Z,23424.00
2019-03-27T09:35:35.481Z,22144.00
2019-03-27T09:36:35.480Z,20640.00
2019-03-27T09:37:35.449Z,19040.00
2019-03-27T09:38:35.448Z,17792.00
2019-03-27T09:39:35.453Z,17152.00
2019-03-27T09:40:35.447Z,16264.00
2019-03-27T09:41:35.434Z,14852.00
2019-03-27T09:42:35.404Z,14796.00
2019-03-27T09:43:35.386Z,14820.00
2019-03-27T09:44:35.388Z,14536.00
2019-03-27T09:45:35.361Z,14300.00
2019-03-27T09:46:35.421Z,14256.00
2019-03-27T09:47:35.340Z,14192.00
2019-03-27T09:48:35.341Z,14044.00
2019-03-27T09:49:48.625Z,13900.00
2019-03-27T09:50:36.310Z,13852.00
2019-03-27T09:51:35.321Z,13904.00
2019-03-27T09:52:35.374Z,14020.00
2019-03-27T09:53:35.273Z,14248.00
2019-03-27T09:54:35.275Z,14720.00
2019-03-27T09:55:35.253Z,15312.00
2019-03-27T09:56:35.243Z,15956.00
2019-03-27T09:57:35.243Z,16668.00
2019-03-27T09:58:35.248Z,17536.00
2019-03-27T09:59:35.210Z,18272.00
2019-03-27T10:00:35.217Z,18784.00
2019-03-27T10:01:35.221Z,19296.00
2019-03-27T10:02:35.176Z,19488.00
2019-03-27T10:03:35.180Z,19616.00
2019-03-27T10:04:35.208Z,19680.00
2019-03-27T10:05:35.158Z,19520.00
2019-03-27T10:06:35.151Z,19200.00
2019-03-27T10:07:35.121Z,18528.00
2019-03-27T10:08:35.214Z,17664.00
2019-03-27T10:09:35.219Z,16928.00
2019-03-27T10:10:35.139Z,16196.00
2019-03-27T10:11:35.079Z,15684.00
2019-03-27T10:12:35.089Z,15064.00
2019-03-27T10:13:35.049Z,14640.00
2019-03-27T10:14:35.046Z,14508.00
2019-03-27T10:15:35.061Z,14772.00
2019-03-27T10:16:35.063Z,15384.00
2019-03-27T10:17:35.021Z,15992.00
2019-03-27T10:18:35.002Z,16736.00
2019-03-27T10:19:34.995Z,17152.00
2019-03-27T10:20:34.978Z,17568.00
2019-03-27T10:21:34.968Z,17920.00
2019-03-27T10:22:35.089Z,18208.00
2019-03-27T10:23:34.944Z,18592.00
2019-03-27T10:24:34.935Z,18816.00
2019-03-27T10:25:34.938Z,19072.00
2019-03-27T10:26:34.916Z,19264.00
2019-03-27T10:27:34.899Z,19552.00
2019-03-27T10:28:34.963Z,19776.00
2019-03-27T10:29:34.892Z,19872.00
2019-03-27T10:30:34.866Z,19936.00
2019-03-27T10:31:34.860Z,20000.00
2019-03-27T10:32:34.848Z,20096.00
2019-03-27T10:33:34.837Z,20096.00
2019-03-27T10:34:34.868Z,20064.00
2019-03-27T10:35:34.826Z,20000.00
2019-03-27T10:36:34.804Z,20032.00
2019-03-27T10:37:34.841Z,20288.00
2019-03-27T10:38:34.776Z,20640.00
2019-03-27T10:39:34.767Z,20768.00
2019-03-27T10:40:34.819Z,20864.00
2019-03-27T10:41:34.744Z,20736.00
2019-03-27T10:42:34.768Z,20800.00
2019-03-27T10:43:34.770Z,20992.00
2019-03-27T10:44:34.705Z,21120.00
2019-03-27T10:45:34.699Z,21600.00
2019-03-27T10:46:34.729Z,21824.00
2019-03-27T10:47:34.680Z,22176.00
2019-03-27T10:48:34.661Z,21888.00
2019-03-27T10:49:34.683Z,21024.00
2019-03-27T10:50:34.657Z,20256.00
2019-03-27T10:51:34.627Z,19552.00
2019-03-27T10:52:34.645Z,19008.00
2019-03-27T10:53:34.621Z,18752.00
2019-03-27T10:54:34.595Z,18720.00
2019-03-27T10:55:34.727Z,18720.00
2019-03-27T10:56:34.590Z,18656.00
2019-03-27T10:57:34.564Z,18656.00
2019-03-27T10:58:34.691Z,18912.00
2019-03-27T10:59:34.550Z,19488.00
2019-03-27T11:00:34.591Z,19424.00
2019-03-27T11:01:34.516Z,18752.00
2019-03-27T11:02:34.580Z,17888.00
2019-03-27T11:03:34.488Z,17888.00
2019-03-27T11:04:34.530Z,17920.00
2019-03-27T11:05:34.467Z,17952.00
2019-03-27T11:06:34.454Z,18112.00
2019-03-27T11:07:34.537Z,18400.00
2019-03-27T11:08:34.441Z,18784.00
2019-03-27T11:09:34.455Z,19168.00
2019-03-27T11:10:34.467Z,19648.00
2019-03-27T11:11:34.404Z,19520.00
2019-03-27T11:12:34.392Z,19008.00
2019-03-27T11:13:34.654Z,19872.00
2019-03-27T11:14:38.073Z,20384.00
2019-03-27T11:15:34.352Z,21120.00
2019-03-27T11:16:34.395Z,21984.00
2019-03-27T11:17:34.350Z,22624.00
2019-03-27T11:18:34.325Z,23168.00
2019-03-27T11:19:34.323Z,24160.00
2019-03-27T11:20:34.300Z,25088.00
2019-03-27T11:21:34.343Z,25344.00
2019-03-27T11:22:34.306Z,24960.00
2019-03-27T11:23:34.267Z,24192.00
2019-03-27T11:24:34.254Z,23040.00
2019-03-27T11:25:34.251Z,20256.00
2019-03-27T11:26:34.357Z,19456.00
2019-03-27T11:27:34.226Z,18528.00
2019-03-27T11:28:34.283Z,17600.00
2019-03-27T11:29:34.216Z,16840.00
2019-03-27T11:30:34.194Z,16708.00
2019-03-27T11:31:34.183Z,16972.00
2019-03-27T11:32:34.161Z,17696.00
2019-03-27T11:33:34.176Z,18272.00
2019-03-27T11:34:34.205Z,18848.00
2019-03-27T11:35:34.142Z,19296.00
2019-03-27T11:36:35.313Z,19488.00
2019-03-27T11:37:34.106Z,20064.00
2019-03-27T11:38:37.287Z,20480.00
2019-03-27T11:39:34.083Z,20608.00
2019-03-27T11:40:34.101Z,20736.00
2019-03-27T11:41:34.097Z,21536.00
2019-03-27T11:42:34.054Z,22912.00
2019-03-27T11:43:34.043Z,24000.00
2019-03-27T11:44:34.040Z,24352.00
2019-03-27T11:45:34.084Z,24352.00
2019-03-27T11:46:34.046Z,23968.00
2019-03-27T11:47:33.990Z,23168.00
2019-03-27T11:48:34.001Z,22336.00
2019-03-27T11:49:33.984Z,21536.00
2019-03-27T11:50:44.034Z,20992.00
2019-03-27T11:51:34.998Z,20960.00
2019-03-27T11:52:33.952Z,21472.00
2019-03-27T11:53:33.937Z,22112.00
2019-03-27T11:54:33.916Z,22368.00
2019-03-27T11:55:33.906Z,22560.00
2019-03-27T11:56:33.906Z,22464.00
2019-03-27T11:57:33.939Z,22080.00
2019-03-27T11:58:33.897Z,21696.00
2019-03-27T11:59:33.867Z,21312.00
2019-03-27T12:00:33.864Z,21152.00
2019-03-27T12:01:39.617Z,21184.00
2019-03-27T12:02:34.885Z,21152.00
2019-03-27T12:03:33.827Z,20960.00
2019-03-27T12:04:33.803Z,20992.00
2019-03-27T12:05:33.812Z,21280.00
2019-03-27T12:06:33.780Z,21664.00
2019-03-27T12:07:33.770Z,22240.00
2019-03-27T12:08:33.815Z,23072.00
2019-03-27T12:09:33.752Z,23776.00
2019-03-27T12:10:33.941Z,24192.00
2019-03-27T12:11:33.767Z,24384.00
2019-03-27T12:12:33.735Z,24544.00
2019-03-27T12:13:33.719Z,24768.00
2019-03-27T12:14:33.735Z,25056.00
2019-03-27T12:15:33.700Z,25408.00
2019-03-27T12:16:33.714Z,25792.00
2019-03-27T12:17:33.662Z,26080.00
2019-03-27T12:18:33.646Z,26176.00
2019-03-27T12:19:33.647Z,26336.00
2019-03-27T12:20:33.692Z,26912.00
2019-03-27T12:21:33.624Z,28320.00
2019-03-27T12:22:33.600Z,35808.00
2019-03-27T12:23:33.599Z,27104.00
2019-03-27T12:24:33.582Z,25120.00
2019-03-27T12:25:33.567Z,24608.00
2019-03-27T12:26:33.618Z,24960.00